sensor_id;sensor_type;location;lat;lon;timestamp;P1;durP1;ratioP1;P2;durP2;ratioP2
3627;SDS011;1830;49.000;12.074;2022-10-16T00:02:21;12.50;;;11.03;;
3627;SDS011;1830;49.000;12.074;2022-10-16T00:04:48;13.83;;;10.77;;
3627;SDS011;1830;49.000;12.074;2022-10-16T00:07:15;16.23;;;10.93;;
3627;SDS011;1830;49.000;12.074;2022-10-16T00:09:42;15.73;;;11.03;;
3627;SDS011;1830;49.000;12.074;2022-10-16T00:12:08;14.07;;;10.70;;
3627;SDS011;1830;49.000;12.074;2022-10-16T00:14:37;14.47;;;10.93;;
3627;SDS011;1830;49.000;12.074;2022-10-16T00:17:06;26.40;;;11.07;;
3627;SDS011;1830;49.000;12.074;2022-10-16T00:19:32;24.27;;;11.10;;
3627;SDS011;1830;49.000;12.074;2022-10-16T00:21:59;17.97;;;10.80;;
3627;SDS011;1830;49.000;12.074;2022-10-16T00:24:27;17.30;;;10.63;;
3627;SDS011;1830;49.000;12.074;2022-10-16T00:26:54;20.30;;;10.57;;
3627;SDS011;1830;49.000;12.074;2022-10-16T00:29:21;20.90;;;9.70;;
3627;SDS011;1830;49.000;12.074;2022-10-16T00:31:49;13.10;;;9.73;;
3627;SDS011;1830;49.000;12.074;2022-10-16T00:34:16;13.60;;;9.77;;
3627;SDS011;1830;49.000;12.074;2022-10-16T00:36:43;16.10;;;10.93;;
3627;SDS011;1830;49.000;12.074;2022-10-16T00:39:10;14.60;;;9.17;;
3627;SDS011;1830;49.000;12.074;2022-10-16T00:41:37;16.60;;;10.23;;
3627;SDS011;1830;49.000;12.074;2022-10-16T00:44:40;18.70;;;10.00;;
3627;SDS011;1830;49.000;12.074;2022-10-16T00:47:13;20.13;;;10.07;;
3627;SDS011;1830;49.000;12.074;2022-10-16T00:49:45;22.43;;;10.60;;
3627;SDS011;1830;49.000;12.074;2022-10-16T00:52:13;17.67;;;10.30;;
3627;SDS011;1830;49.000;12.074;2022-10-16T00:54:41;23.63;;;10.13;;
3627;SDS011;1830;49.000;12.074;2022-10-16T00:57:08;20.47;;;11.13;;
3627;SDS011;1830;49.000;12.074;2022-10-16T00:59:35;16.90;;;11.77;;
3627;SDS011;1830;49.000;12.074;2022-10-16T01:02:04;17.93;;;12.30;;
3627;SDS011;1830;49.000;12.074;2022-10-16T01:04:36;16.30;;;11.40;;
3627;SDS011;1830;49.000;12.074;2022-10-16T01:07:06;22.63;;;10.90;;
3627;SDS011;1830;49.000;12.074;2022-10-16T01:09:40;17.63;;;12.73;;
3627;SDS011;1830;49.000;12.074;2022-10-16T01:12:17;18.10;;;12.30;;
3627;SDS011;1830;49.000;12.074;2022-10-16T01:14:53;22.67;;;13.73;;
3627;SDS011;1830;49.000;12.074;2022-10-16T01:17:23;17.47;;;13.00;;
3627;SDS011;1830;49.000;12.074;2022-10-16T01:20:03;18.57;;;13.43;;
3627;SDS011;1830;49.000;12.074;2022-10-16T01:22:43;23.60;;;12.80;;
3627;SDS011;1830;49.000;12.074;2022-10-16T01:25:23;19.03;;;14.00;;
3627;SDS011;1830;49.000;12.074;2022-10-16T01:27:58;27.93;;;13.53;;
3627;SDS011;1830;49.000;12.074;2022-10-16T01:30:29;17.37;;;12.57;;
3627;SDS011;1830;49.000;12.074;2022-10-16T01:32:59;27.07;;;12.27;;
3627;SDS011;1830;49.000;12.074;2022-10-16T01:35:30;21.10;;;13.23;;
3627;SDS011;1830;49.000;12.074;2022-10-16T01:38:02;25.27;;;12.90;;
3627;SDS011;1830;49.000;12.074;2022-10-16T01:40:32;23.00;;;12.60;;
3627;SDS011;1830;49.000;12.074;2022-10-16T01:43:04;21.30;;;11.90;;
3627;SDS011;1830;49.000;12.074;2022-10-16T01:45:34;26.50;;;13.60;;
3627;SDS011;1830;49.000;12.074;2022-10-16T01:48:03;25.53;;;12.70;;
3627;SDS011;1830;49.000;12.074;2022-10-16T01:50:35;30.87;;;13.90;;
3627;SDS011;1830;49.000;12.074;2022-10-16T01:53:04;20.70;;;12.17;;
3627;SDS011;1830;49.000;12.074;2022-10-16T01:55:34;22.40;;;12.97;;
3627;SDS011;1830;49.000;12.074;2022-10-16T01:58:07;20.13;;;12.23;;
3627;SDS011;1830;49.000;12.074;2022-10-16T02:00:36;21.63;;;12.67;;
3627;SDS011;1830;49.000;12.074;2022-10-16T02:03:04;26.60;;;12.63;;
3627;SDS011;1830;49.000;12.074;2022-10-16T02:05:33;19.30;;;13.30;;
3627;SDS011;1830;49.000;12.074;2022-10-16T02:08:04;20.00;;;12.07;;
3627;SDS011;1830;49.000;12.074;2022-10-16T02:10:31;18.50;;;12.07;;
3627;SDS011;1830;49.000;12.074;2022-10-16T02:13:00;19.40;;;12.50;;
3627;SDS011;1830;49.000;12.074;2022-10-16T02:15:32;17.03;;;12.70;;
3627;SDS011;1830;49.000;12.074;2022-10-16T02:17:59;19.90;;;11.13;;
3627;SDS011;1830;49.000;12.074;2022-10-16T02:20:26;20.70;;;12.40;;
3627;SDS011;1830;49.000;12.074;2022-10-16T02:22:58;22.13;;;12.13;;
3627;SDS011;1830;49.000;12.074;2022-10-16T02:25:29;24.30;;;12.17;;
3627;SDS011;1830;49.000;12.074;2022-10-16T02:27:59;24.97;;;12.40;;
3627;SDS011;1830;49.000;12.074;2022-10-16T02:30:32;19.13;;;11.33;;
3627;SDS011;1830;49.000;12.074;2022-10-16T02:33:02;15.50;;;11.73;;
3627;SDS011;1830;49.000;12.074;2022-10-16T02:35:33;13.97;;;11.60;;
3627;SDS011;1830;49.000;12.074;2022-10-16T02:38:00;18.37;;;11.40;;
3627;SDS011;1830;49.000;12.074;2022-10-16T02:40:27;16.17;;;11.50;;
3627;SDS011;1830;49.000;12.074;2022-10-16T02:42:55;18.50;;;11.10;;
3627;SDS011;1830;49.000;12.074;2022-10-16T02:45:22;19.10;;;12.00;;
3627;SDS011;1830;49.000;12.074;2022-10-16T02:47:51;17.37;;;11.73;;
3627;SDS011;1830;49.000;12.074;2022-10-16T02:50:17;19.83;;;11.23;;
3627;SDS011;1830;49.000;12.074;2022-10-16T02:52:44;24.30;;;12.00;;
3627;SDS011;1830;49.000;12.074;2022-10-16T02:55:11;20.57;;;11.20;;
3627;SDS011;1830;49.000;12.074;2022-10-16T02:57:38;23.60;;;10.83;;
3627;SDS011;1830;49.000;12.074;2022-10-16T03:00:05;18.03;;;10.83;;
3627;SDS011;1830;49.000;12.074;2022-10-16T03:02:33;16.97;;;11.10;;
3627;SDS011;1830;49.000;12.074;2022-10-16T03:05:02;18.37;;;11.27;;
3627;SDS011;1830;49.000;12.074;2022-10-16T03:07:29;14.27;;;10.13;;
3627;SDS011;1830;49.000;12.074;2022-10-16T03:09:56;18.50;;;11.40;;
3627;SDS011;1830;49.000;12.074;2022-10-16T03:12:25;16.90;;;11.27;;
3627;SDS011;1830;49.000;12.074;2022-10-16T03:14:52;22.83;;;12.50;;
3627;SDS011;1830;49.000;12.074;2022-10-16T03:17:18;25.33;;;10.43;;
3627;SDS011;1830;49.000;12.074;2022-10-16T03:19:45;19.73;;;10.37;;
3627;SDS011;1830;49.000;12.074;2022-10-16T03:22:13;17.13;;;11.00;;
3627;SDS011;1830;49.000;12.074;2022-10-16T03:24:40;17.97;;;9.53;;
3627;SDS011;1830;49.000;12.074;2022-10-16T03:27:07;19.30;;;10.90;;
3627;SDS011;1830;49.000;12.074;2022-10-16T03:29:34;10.20;;;9.10;;
3627;SDS011;1830;49.000;12.074;2022-10-16T03:32:00;16.20;;;10.03;;
3627;SDS011;1830;49.000;12.074;2022-10-16T03:34:27;19.77;;;10.67;;
3627;SDS011;1830;49.000;12.074;2022-10-16T03:36:54;18.17;;;10.90;;
3627;SDS011;1830;49.000;12.074;2022-10-16T03:39:22;22.10;;;12.13;;
3627;SDS011;1830;49.000;12.074;2022-10-16T03:41:49;16.13;;;11.10;;
3627;SDS011;1830;49.000;12.074;2022-10-16T03:44:16;22.60;;;11.83;;
3627;SDS011;1830;49.000;12.074;2022-10-16T03:46:43;20.40;;;12.43;;
3627;SDS011;1830;49.000;12.074;2022-10-16T03:49:10;21.10;;;12.13;;
3627;SDS011;1830;49.000;12.074;2022-10-16T03:51:36;22.00;;;11.70;;
3627;SDS011;1830;49.000;12.074;2022-10-16T03:54:03;19.97;;;11.50;;
3627;SDS011;1830;49.000;12.074;2022-10-16T03:56:31;22.90;;;12.47;;
3627;SDS011;1830;49.000;12.074;2022-10-16T03:58:58;19.37;;;12.93;;
3627;SDS011;1830;49.000;12.074;2022-10-16T04:01:25;23.67;;;12.73;;
3627;SDS011;1830;49.000;12.074;2022-10-16T04:03:51;18.93;;;12.07;;
3627;SDS011;1830;49.000;12.074;2022-10-16T04:06:18;26.00;;;13.07;;
3627;SDS011;1830;49.000;12.074;2022-10-16T04:08:45;16.70;;;12.37;;
3627;SDS011;1830;49.000;12.074;2022-10-16T04:11:12;15.43;;;11.47;;
3627;SDS011;1830;49.000;12.074;2022-10-16T04:13:40;21.67;;;12.50;;
3627;SDS011;1830;49.000;12.074;2022-10-16T04:16:07;27.17;;;12.53;;
3627;SDS011;1830;49.000;12.074;2022-10-16T04:18:34;26.67;;;13.13;;
3627;SDS011;1830;49.000;12.074;2022-10-16T04:21:02;25.83;;;13.20;;
3627;SDS011;1830;49.000;12.074;2022-10-16T04:23:29;22.57;;;13.53;;
3627;SDS011;1830;49.000;12.074;2022-10-16T04:25:56;17.47;;;12.70;;
3627;SDS011;1830;49.000;12.074;2022-10-16T04:28:23;15.10;;;11.83;;
3627;SDS011;1830;49.000;12.074;2022-10-16T04:30:51;16.67;;;12.10;;
3627;SDS011;1830;49.000;12.074;2022-10-16T04:33:17;14.90;;;11.30;;
3627;SDS011;1830;49.000;12.074;2022-10-16T04:35:44;15.27;;;12.20;;
3627;SDS011;1830;49.000;12.074;2022-10-16T04:38:11;14.67;;;12.10;;
3627;SDS011;1830;49.000;12.074;2022-10-16T04:40:38;30.47;;;11.90;;
3627;SDS011;1830;49.000;12.074;2022-10-16T04:43:05;23.57;;;12.07;;
3627;SDS011;1830;49.000;12.074;2022-10-16T04:45:32;19.40;;;11.27;;
3627;SDS011;1830;49.000;12.074;2022-10-16T04:48:00;23.83;;;12.30;;
3627;SDS011;1830;49.000;12.074;2022-10-16T04:50:27;20.60;;;13.30;;
3627;SDS011;1830;49.000;12.074;2022-10-16T04:52:54;18.30;;;13.23;;
3627;SDS011;1830;49.000;12.074;2022-10-16T04:55:20;17.60;;;13.23;;
3627;SDS011;1830;49.000;12.074;2022-10-16T04:57:47;24.47;;;12.37;;
3627;SDS011;1830;49.000;12.074;2022-10-16T05:00:14;27.70;;;14.10;;
3627;SDS011;1830;49.000;12.074;2022-10-16T05:02:41;21.00;;;14.47;;
3627;SDS011;1830;49.000;12.074;2022-10-16T05:05:09;22.20;;;13.60;;
3627;SDS011;1830;49.000;12.074;2022-10-16T05:07:36;23.63;;;13.60;;
3627;SDS011;1830;49.000;12.074;2022-10-16T05:10:03;23.80;;;15.17;;
3627;SDS011;1830;49.000;12.074;2022-10-16T05:12:31;18.10;;;13.70;;
3627;SDS011;1830;49.000;12.074;2022-10-16T05:14:59;18.57;;;14.20;;
3627;SDS011;1830;49.000;12.074;2022-10-16T05:17:25;18.83;;;13.93;;
3627;SDS011;1830;49.000;12.074;2022-10-16T05:19:52;18.70;;;13.23;;
3627;SDS011;1830;49.000;12.074;2022-10-16T05:22:20;23.90;;;13.40;;
3627;SDS011;1830;49.000;12.074;2022-10-16T05:24:47;17.60;;;14.03;;
3627;SDS011;1830;49.000;12.074;2022-10-16T05:27:14;23.70;;;13.03;;
3627;SDS011;1830;49.000;12.074;2022-10-16T05:29:44;18.13;;;12.27;;
3627;SDS011;1830;49.000;12.074;2022-10-16T05:32:12;29.13;;;12.43;;
3627;SDS011;1830;49.000;12.074;2022-10-16T05:34:39;17.90;;;12.27;;
3627;SDS011;1830;49.000;12.074;2022-10-16T05:37:05;23.87;;;13.07;;
3627;SDS011;1830;49.000;12.074;2022-10-16T05:39:34;22.67;;;12.00;;
3627;SDS011;1830;49.000;12.074;2022-10-16T05:42:01;22.93;;;12.20;;
3627;SDS011;1830;49.000;12.074;2022-10-16T05:44:28;27.83;;;12.83;;
3627;SDS011;1830;49.000;12.074;2022-10-16T05:46:55;16.03;;;12.80;;
3627;SDS011;1830;49.000;12.074;2022-10-16T05:49:22;26.63;;;13.03;;
3627;SDS011;1830;49.000;12.074;2022-10-16T05:51:49;28.40;;;13.90;;
3627;SDS011;1830;49.000;12.074;2022-10-16T05:54:15;17.60;;;13.83;;
3627;SDS011;1830;49.000;12.074;2022-10-16T05:56:44;18.93;;;13.40;;
3627;SDS011;1830;49.000;12.074;2022-10-16T05:59:11;19.93;;;13.57;;
3627;SDS011;1830;49.000;12.074;2022-10-16T06:01:37;31.10;;;14.37;;
3627;SDS011;1830;49.000;12.074;2022-10-16T06:04:04;22.80;;;13.53;;
3627;SDS011;1830;49.000;12.074;2022-10-16T06:06:31;24.63;;;13.60;;
3627;SDS011;1830;49.000;12.074;2022-10-16T06:08:58;18.07;;;12.80;;
3627;SDS011;1830;49.000;12.074;2022-10-16T06:11:25;18.37;;;13.10;;
3627;SDS011;1830;49.000;12.074;2022-10-16T06:13:55;21.23;;;14.20;;
3627;SDS011;1830;49.000;12.074;2022-10-16T06:16:24;27.93;;;13.63;;
3627;SDS011;1830;49.000;12.074;2022-10-16T06:18:51;20.67;;;13.03;;
3627;SDS011;1830;49.000;12.074;2022-10-16T06:21:20;19.63;;;13.00;;
3627;SDS011;1830;49.000;12.074;2022-10-16T06:23:50;21.40;;;12.60;;
3627;SDS011;1830;49.000;12.074;2022-10-16T06:26:17;16.37;;;12.80;;
3627;SDS011;1830;49.000;12.074;2022-10-16T06:28:45;22.37;;;13.00;;
3627;SDS011;1830;49.000;12.074;2022-10-16T06:31:14;21.63;;;13.17;;
3627;SDS011;1830;49.000;12.074;2022-10-16T06:33:42;24.90;;;11.50;;
3627;SDS011;1830;49.000;12.074;2022-10-16T06:36:11;43.03;;;13.40;;
3627;SDS011;1830;49.000;12.074;2022-10-16T06:38:39;17.37;;;12.97;;
3627;SDS011;1830;49.000;12.074;2022-10-16T06:41:07;18.90;;;13.30;;
3627;SDS011;1830;49.000;12.074;2022-10-16T06:43:37;21.73;;;13.47;;
3627;SDS011;1830;49.000;12.074;2022-10-16T06:46:04;21.77;;;13.80;;
3627;SDS011;1830;49.000;12.074;2022-10-16T06:48:34;23.90;;;12.97;;
3627;SDS011;1830;49.000;12.074;2022-10-16T06:51:01;26.10;;;13.47;;
3627;SDS011;1830;49.000;12.074;2022-10-16T06:53:30;18.30;;;12.50;;
3627;SDS011;1830;49.000;12.074;2022-10-16T06:56:05;20.90;;;12.90;;
3627;SDS011;1830;49.000;12.074;2022-10-16T06:58:33;16.67;;;12.67;;
3627;SDS011;1830;49.000;12.074;2022-10-16T07:01:00;17.07;;;12.70;;
3627;SDS011;1830;49.000;12.074;2022-10-16T07:03:27;25.13;;;14.10;;
3627;SDS011;1830;49.000;12.074;2022-10-16T07:05:55;15.30;;;13.13;;
3627;SDS011;1830;49.000;12.074;2022-10-16T07:08:22;15.30;;;12.53;;
3627;SDS011;1830;49.000;12.074;2022-10-16T07:10:57;30.40;;;14.40;;
3627;SDS011;1830;49.000;12.074;2022-10-16T07:13:24;19.00;;;14.17;;
3627;SDS011;1830;49.000;12.074;2022-10-16T07:15:51;23.70;;;13.20;;
3627;SDS011;1830;49.000;12.074;2022-10-16T07:18:18;19.33;;;13.77;;
3627;SDS011;1830;49.000;12.074;2022-10-16T07:20:44;17.73;;;13.63;;
3627;SDS011;1830;49.000;12.074;2022-10-16T07:23:13;20.33;;;14.13;;
3627;SDS011;1830;49.000;12.074;2022-10-16T07:25:39;19.10;;;12.40;;
3627;SDS011;1830;49.000;12.074;2022-10-16T07:28:06;21.90;;;13.37;;
3627;SDS011;1830;49.000;12.074;2022-10-16T07:30:34;19.70;;;13.00;;
3627;SDS011;1830;49.000;12.074;2022-10-16T07:33:02;21.10;;;12.87;;
3627;SDS011;1830;49.000;12.074;2022-10-16T07:35:29;18.83;;;13.47;;
3627;SDS011;1830;49.000;12.074;2022-10-16T07:37:56;31.57;;;13.00;;
3627;SDS011;1830;49.000;12.074;2022-10-16T07:40:24;27.83;;;12.83;;
3627;SDS011;1830;49.000;12.074;2022-10-16T07:42:52;24.97;;;13.53;;
3627;SDS011;1830;49.000;12.074;2022-10-16T07:45:19;17.30;;;13.57;;
3627;SDS011;1830;49.000;12.074;2022-10-16T07:47:46;15.70;;;12.50;;
3627;SDS011;1830;49.000;12.074;2022-10-16T07:50:13;18.93;;;11.97;;
3627;SDS011;1830;49.000;12.074;2022-10-16T07:52:39;15.63;;;10.73;;
3627;SDS011;1830;49.000;12.074;2022-10-16T07:55:07;23.97;;;13.70;;
3627;SDS011;1830;49.000;12.074;2022-10-16T07:57:35;16.17;;;11.20;;
3627;SDS011;1830;49.000;12.074;2022-10-16T08:00:02;16.23;;;10.67;;
3627;SDS011;1830;49.000;12.074;2022-10-16T08:02:31;15.20;;;10.20;;
3627;SDS011;1830;49.000;12.074;2022-10-16T08:04:57;11.60;;;10.40;;
3627;SDS011;1830;49.000;12.074;2022-10-16T08:07:24;14.13;;;10.03;;
3627;SDS011;1830;49.000;12.074;2022-10-16T08:09:51;11.97;;;9.20;;
3627;SDS011;1830;49.000;12.074;2022-10-16T08:12:18;9.77;;;8.77;;
3627;SDS011;1830;49.000;12.074;2022-10-16T08:14:46;12.67;;;8.73;;
3627;SDS011;1830;49.000;12.074;2022-10-16T08:17:13;12.73;;;8.50;;
3627;SDS011;1830;49.000;12.074;2022-10-16T08:19:43;11.53;;;8.90;;
3627;SDS011;1830;49.000;12.074;2022-10-16T08:22:10;16.50;;;8.83;;
3627;SDS011;1830;49.000;12.074;2022-10-16T08:24:37;16.13;;;8.70;;
3627;SDS011;1830;49.000;12.074;2022-10-16T08:27:04;9.10;;;8.10;;
3627;SDS011;1830;49.000;12.074;2022-10-16T08:29:31;22.67;;;7.43;;
3627;SDS011;1830;49.000;12.074;2022-10-16T08:32:00;10.77;;;7.93;;
3627;SDS011;1830;49.000;12.074;2022-10-16T08:34:26;9.90;;;8.00;;
3627;SDS011;1830;49.000;12.074;2022-10-16T08:36:53;9.20;;;7.87;;
3627;SDS011;1830;49.000;12.074;2022-10-16T08:39:20;8.10;;;7.30;;
3627;SDS011;1830;49.000;12.074;2022-10-16T08:42:03;13.03;;;6.50;;
3627;SDS011;1830;49.000;12.074;2022-10-16T08:44:54;8.63;;;7.20;;
3627;SDS011;1830;49.000;12.074;2022-10-16T08:47:47;12.73;;;7.37;;
3627;SDS011;1830;49.000;12.074;2022-10-16T08:50:21;31.07;;;8.63;;
3627;SDS011;1830;49.000;12.074;2022-10-16T08:52:50;8.50;;;7.30;;
3627;SDS011;1830;49.000;12.074;2022-10-16T08:55:31;10.33;;;6.83;;
3627;SDS011;1830;49.000;12.074;2022-10-16T08:58:07;12.40;;;6.77;;
3627;SDS011;1830;49.000;12.074;2022-10-16T09:00:38;11.50;;;6.77;;
3627;SDS011;1830;49.000;12.074;2022-10-16T09:03:10;16.50;;;7.00;;
3627;SDS011;1830;49.000;12.074;2022-10-16T09:05:46;10.20;;;6.70;;
3627;SDS011;1830;49.000;12.074;2022-10-16T09:08:24;15.77;;;6.80;;
3627;SDS011;1830;49.000;12.074;2022-10-16T09:10:57;9.37;;;6.50;;
3627;SDS011;1830;49.000;12.074;2022-10-16T09:13:31;12.43;;;7.77;;
3627;SDS011;1830;49.000;12.074;2022-10-16T09:16:10;7.17;;;6.40;;
3627;SDS011;1830;49.000;12.074;2022-10-16T09:18:45;7.73;;;6.60;;
3627;SDS011;1830;49.000;12.074;2022-10-16T09:21:18;18.13;;;6.10;;
3627;SDS011;1830;49.000;12.074;2022-10-16T09:23:48;7.97;;;6.50;;
3627;SDS011;1830;49.000;12.074;2022-10-16T09:26:16;18.07;;;6.57;;
3627;SDS011;1830;49.000;12.074;2022-10-16T09:28:44;11.30;;;6.33;;
3627;SDS011;1830;49.000;12.074;2022-10-16T09:31:15;8.07;;;6.50;;
3627;SDS011;1830;49.000;12.074;2022-10-16T09:33:46;8.00;;;5.80;;
3627;SDS011;1830;49.000;12.074;2022-10-16T09:36:15;7.07;;;6.33;;
3627;SDS011;1830;49.000;12.074;2022-10-16T09:38:43;8.10;;;7.00;;
3627;SDS011;1830;49.000;12.074;2022-10-16T09:41:13;10.80;;;5.93;;
3627;SDS011;1830;49.000;12.074;2022-10-16T09:43:46;8.10;;;5.73;;
3627;SDS011;1830;49.000;12.074;2022-10-16T09:46:21;11.80;;;6.63;;
3627;SDS011;1830;49.000;12.074;2022-10-16T09:48:55;7.83;;;6.00;;
3627;SDS011;1830;49.000;12.074;2022-10-16T09:51:24;9.27;;;6.33;;
3627;SDS011;1830;49.000;12.074;2022-10-16T09:53:57;7.20;;;5.70;;
3627;SDS011;1830;49.000;12.074;2022-10-16T09:56:26;19.23;;;5.47;;
3627;SDS011;1830;49.000;12.074;2022-10-16T09:58:54;7.50;;;6.00;;
3627;SDS011;1830;49.000;12.074;2022-10-16T10:01:22;7.63;;;5.60;;
3627;SDS011;1830;49.000;12.074;2022-10-16T10:03:56;16.63;;;5.50;;
3627;SDS011;1830;49.000;12.074;2022-10-16T10:06:28;5.80;;;5.27;;
3627;SDS011;1830;49.000;12.074;2022-10-16T10:09:00;6.70;;;5.40;;
3627;SDS011;1830;49.000;12.074;2022-10-16T10:11:40;8.63;;;5.43;;
3627;SDS011;1830;49.000;12.074;2022-10-16T10:14:14;16.93;;;6.00;;
3627;SDS011;1830;49.000;12.074;2022-10-16T10:16:44;14.87;;;5.60;;
3627;SDS011;1830;49.000;12.074;2022-10-16T10:19:14;9.07;;;5.13;;
3627;SDS011;1830;49.000;12.074;2022-10-16T10:21:43;11.27;;;7.27;;
3627;SDS011;1830;49.000;12.074;2022-10-16T10:24:10;5.87;;;4.47;;
3627;SDS011;1830;49.000;12.074;2022-10-16T10:26:37;6.60;;;4.73;;
3627;SDS011;1830;49.000;12.074;2022-10-16T10:29:09;9.60;;;4.63;;
3627;SDS011;1830;49.000;12.074;2022-10-16T10:31:43;9.63;;;4.70;;
3627;SDS011;1830;49.000;12.074;2022-10-16T10:34:22;6.07;;;4.43;;
3627;SDS011;1830;49.000;12.074;2022-10-16T10:37:10;6.07;;;4.60;;
3627;SDS011;1830;49.000;12.074;2022-10-16T10:39:49;4.80;;;4.10;;
3627;SDS011;1830;49.000;12.074;2022-10-16T10:42:27;7.87;;;4.80;;
3627;SDS011;1830;49.000;12.074;2022-10-16T10:45:04;6.37;;;4.47;;
3627;SDS011;1830;49.000;12.074;2022-10-16T10:47:46;9.67;;;4.70;;
3627;SDS011;1830;49.000;12.074;2022-10-16T10:50:24;9.77;;;5.23;;
3627;SDS011;1830;49.000;12.074;2022-10-16T10:52:58;5.30;;;3.90;;
3627;SDS011;1830;49.000;12.074;2022-10-16T10:55:33;9.93;;;4.47;;
3627;SDS011;1830;49.000;12.074;2022-10-16T10:58:12;8.07;;;4.60;;
3627;SDS011;1830;49.000;12.074;2022-10-16T11:00:50;13.80;;;5.33;;
3627;SDS011;1830;49.000;12.074;2022-10-16T11:03:27;7.13;;;4.40;;
3627;SDS011;1830;49.000;12.074;2022-10-16T11:06:09;5.00;;;4.33;;
3627;SDS011;1830;49.000;12.074;2022-10-16T11:08:42;8.70;;;3.87;;
3627;SDS011;1830;49.000;12.074;2022-10-16T11:11:14;8.73;;;4.10;;
3627;SDS011;1830;49.000;12.074;2022-10-16T11:13:48;8.33;;;4.40;;
3627;SDS011;1830;49.000;12.074;2022-10-16T11:16:22;5.53;;;4.00;;
3627;SDS011;1830;49.000;12.074;2022-10-16T11:18:55;10.13;;;4.47;;
3627;SDS011;1830;49.000;12.074;2022-10-16T11:21:27;5.57;;;4.53;;
3627;SDS011;1830;49.000;12.074;2022-10-16T11:23:59;12.33;;;5.43;;
3627;SDS011;1830;49.000;12.074;2022-10-16T11:26:32;8.93;;;4.33;;
3627;SDS011;1830;49.000;12.074;2022-10-16T11:29:01;5.70;;;4.60;;
3627;SDS011;1830;49.000;12.074;2022-10-16T11:31:34;8.33;;;4.33;;
3627;SDS011;1830;49.000;12.074;2022-10-16T11:34:05;6.03;;;3.60;;
3627;SDS011;1830;49.000;12.074;2022-10-16T11:36:44;15.13;;;3.70;;
3627;SDS011;1830;49.000;12.074;2022-10-16T11:39:18;6.97;;;3.87;;
3627;SDS011;1830;49.000;12.074;2022-10-16T11:42:13;6.60;;;3.70;;
3627;SDS011;1830;49.000;12.074;2022-10-16T11:44:48;5.10;;;4.07;;
3627;SDS011;1830;49.000;12.074;2022-10-16T11:47:31;10.53;;;4.33;;
3627;SDS011;1830;49.000;12.074;2022-10-16T11:50:09;7.87;;;3.43;;
3627;SDS011;1830;49.000;12.074;2022-10-16T11:52:50;8.43;;;4.20;;
3627;SDS011;1830;49.000;12.074;2022-10-16T11:55:23;6.60;;;3.60;;
3627;SDS011;1830;49.000;12.074;2022-10-16T11:57:57;6.10;;;4.00;;
3627;SDS011;1830;49.000;12.074;2022-10-16T12:00:28;4.83;;;3.63;;
3627;SDS011;1830;49.000;12.074;2022-10-16T12:03:02;6.47;;;3.40;;
3627;SDS011;1830;49.000;12.074;2022-10-16T12:05:40;8.00;;;3.43;;
3627;SDS011;1830;49.000;12.074;2022-10-16T12:08:34;6.10;;;3.70;;
3627;SDS011;1830;49.000;12.074;2022-10-16T12:11:08;6.43;;;3.37;;
3627;SDS011;1830;49.000;12.074;2022-10-16T12:13:46;12.83;;;3.63;;
3627;SDS011;1830;49.000;12.074;2022-10-16T12:19:11;7.57;;;3.30;;
3627;SDS011;1830;49.000;12.074;2022-10-16T12:21:42;5.30;;;3.40;;
3627;SDS011;1830;49.000;12.074;2022-10-16T12:24:20;5.30;;;3.53;;
3627;SDS011;1830;49.000;12.074;2022-10-16T12:26:53;12.80;;;3.07;;
3627;SDS011;1830;49.000;12.074;2022-10-16T12:29:23;3.70;;;3.30;;
3627;SDS011;1830;49.000;12.074;2022-10-16T12:31:56;14.03;;;3.67;;
3627;SDS011;1830;49.000;12.074;2022-10-16T12:34:26;4.27;;;3.87;;
3627;SDS011;1830;49.000;12.074;2022-10-16T12:36:55;9.43;;;4.20;;
3627;SDS011;1830;49.000;12.074;2022-10-16T12:39:35;15.33;;;3.87;;
3627;SDS011;1830;49.000;12.074;2022-10-16T12:42:03;6.13;;;3.97;;
3627;SDS011;1830;49.000;12.074;2022-10-16T12:44:32;6.33;;;3.30;;
3627;SDS011;1830;49.000;12.074;2022-10-16T12:47:00;7.20;;;3.27;;
3627;SDS011;1830;49.000;12.074;2022-10-16T12:49:31;5.17;;;3.50;;
3627;SDS011;1830;49.000;12.074;2022-10-16T12:52:02;5.73;;;2.80;;
3627;SDS011;1830;49.000;12.074;2022-10-16T12:54:30;7.77;;;3.60;;
3627;SDS011;1830;49.000;12.074;2022-10-16T12:57:08;7.63;;;3.00;;
3627;SDS011;1830;49.000;12.074;2022-10-16T12:59:48;5.17;;;3.00;;
3627;SDS011;1830;49.000;12.074;2022-10-16T13:05:21;5.07;;;3.00;;
3627;SDS011;1830;49.000;12.074;2022-10-16T13:07:58;3.40;;;3.10;;
3627;SDS011;1830;49.000;12.074;2022-10-16T13:10:38;8.63;;;3.63;;
3627;SDS011;1830;49.000;12.074;2022-10-16T13:16:03;8.50;;;3.67;;
3627;SDS011;1830;49.000;12.074;2022-10-16T13:18:42;3.27;;;2.80;;
3627;SDS011;1830;49.000;12.074;2022-10-16T13:21:24;3.73;;;2.73;;
3627;SDS011;1830;49.000;12.074;2022-10-16T13:24:01;5.77;;;3.10;;
3627;SDS011;1830;49.000;12.074;2022-10-16T13:26:35;11.40;;;3.60;;
3627;SDS011;1830;49.000;12.074;2022-10-16T13:29:11;6.17;;;2.93;;
3627;SDS011;1830;49.000;12.074;2022-10-16T13:31:39;10.10;;;3.00;;
3627;SDS011;1830;49.000;12.074;2022-10-16T13:34:10;5.73;;;2.93;;
3627;SDS011;1830;49.000;12.074;2022-10-16T13:36:43;3.90;;;2.30;;
3627;SDS011;1830;49.000;12.074;2022-10-16T13:39:12;7.77;;;2.70;;
3627;SDS011;1830;49.000;12.074;2022-10-16T13:41:42;12.47;;;2.60;;
3627;SDS011;1830;49.000;12.074;2022-10-16T13:44:21;8.23;;;2.37;;
3627;SDS011;1830;49.000;12.074;2022-10-16T13:46:57;6.30;;;2.60;;
3627;SDS011;1830;49.000;12.074;2022-10-16T13:49:24;12.37;;;2.30;;
3627;SDS011;1830;49.000;12.074;2022-10-16T13:51:55;11.17;;;2.60;;
3627;SDS011;1830;49.000;12.074;2022-10-16T13:54:23;2.67;;;2.40;;
3627;SDS011;1830;49.000;12.074;2022-10-16T13:56:50;3.03;;;2.27;;
3627;SDS011;1830;49.000;12.074;2022-10-16T13:59:34;4.70;;;2.53;;
3627;SDS011;1830;49.000;12.074;2022-10-16T14:02:05;2.97;;;2.67;;
3627;SDS011;1830;49.000;12.074;2022-10-16T14:04:44;3.80;;;2.50;;
3627;SDS011;1830;49.000;12.074;2022-10-16T14:07:20;5.13;;;2.70;;
3627;SDS011;1830;49.000;12.074;2022-10-16T14:09:52;6.23;;;3.03;;
3627;SDS011;1830;49.000;12.074;2022-10-16T14:12:22;4.50;;;2.83;;
3627;SDS011;1830;49.000;12.074;2022-10-16T14:14:55;6.27;;;2.70;;
3627;SDS011;1830;49.000;12.074;2022-10-16T14:17:25;3.50;;;2.13;;
3627;SDS011;1830;49.000;12.074;2022-10-16T14:19:53;3.23;;;2.10;;
3627;SDS011;1830;49.000;12.074;2022-10-16T14:22:27;12.53;;;2.73;;
3627;SDS011;1830;49.000;12.074;2022-10-16T14:24:56;6.77;;;3.03;;
3627;SDS011;1830;49.000;12.074;2022-10-16T14:27:26;3.40;;;2.50;;
3627;SDS011;1830;49.000;12.074;2022-10-16T14:30:13;4.87;;;4.37;;
3627;SDS011;1830;49.000;12.074;2022-10-16T14:32:52;4.73;;;2.83;;
3627;SDS011;1830;49.000;12.074;2022-10-16T14:35:24;7.47;;;2.70;;
3627;SDS011;1830;49.000;12.074;2022-10-16T14:37:52;5.97;;;3.00;;
3627;SDS011;1830;49.000;12.074;2022-10-16T14:40:20;12.40;;;3.40;;
3627;SDS011;1830;49.000;12.074;2022-10-16T14:42:49;8.40;;;3.40;;
3627;SDS011;1830;49.000;12.074;2022-10-16T14:45:19;13.00;;;3.47;;
3627;SDS011;1830;49.000;12.074;2022-10-16T14:47:48;5.83;;;3.77;;
3627;SDS011;1830;49.000;12.074;2022-10-16T14:50:16;7.03;;;3.63;;
3627;SDS011;1830;49.000;12.074;2022-10-16T14:52:43;6.27;;;3.43;;
3627;SDS011;1830;49.000;12.074;2022-10-16T14:55:10;4.43;;;3.37;;
3627;SDS011;1830;49.000;12.074;2022-10-16T14:57:37;9.37;;;3.23;;
3627;SDS011;1830;49.000;12.074;2022-10-16T15:00:08;4.80;;;3.30;;
3627;SDS011;1830;49.000;12.074;2022-10-16T15:02:41;7.20;;;3.57;;
3627;SDS011;1830;49.000;12.074;2022-10-16T15:05:13;5.80;;;3.20;;
3627;SDS011;1830;49.000;12.074;2022-10-16T15:07:42;8.20;;;3.50;;
3627;SDS011;1830;49.000;12.074;2022-10-16T15:10:10;3.60;;;3.30;;
3627;SDS011;1830;49.000;12.074;2022-10-16T15:12:38;7.30;;;3.90;;
3627;SDS011;1830;49.000;12.074;2022-10-16T15:15:15;11.93;;;3.57;;